Time;durP1;ratioP1;P1;durP2;ratioP2;P2;SDS_P1;SDS_P2;PMS_P1;PMS_P2;Temp;Humidity;BMP_temperature;BMP_pressure;BME280_temperature;BME280_humidity;BME280_pressure;Samples;Min_cycle;Max_cycle;Signal;HPM_P1;HPM_P2
2021/08/20 00:00:06;;;;;;;1.93;1.43;;;18.90;99.90;;;;;;5052081;28;20176;-81
2021/08/20 00:02:38;;;;;;;3.57;1.40;;;18.90;99.90;;;;;;5035975;28;20909;-81
2021/08/20 00:05:04;;;;;;;2.30;1.30;;;18.80;99.90;;;;;;5052517;28;20566;-82
2021/08/20 00:07:30;;;;;;;3.97;1.10;;;18.80;99.90;;;;;;5052786;28;21025;-81
2021/08/20 00:09:58;;;;;;;2.20;1.40;;;18.80;99.90;;;;;;5052610;28;20572;-82
2021/08/20 00:12:24;;;;;;;1.97;1.40;;;18.80;99.90;;;;;;5052751;28;20564;-81
2021/08/20 00:14:50;;;;;;;4.10;1.90;;;18.70;99.90;;;;;;5052690;28;21333;-81
2021/08/20 00:17:16;;;;;;;2.33;1.57;;;18.70;99.90;;;;;;5034570;28;20725;-81
2021/08/20 00:19:42;;;;;;;3.13;1.30;;;18.80;99.90;;;;;;5034723;28;20997;-81
2021/08/20 00:22:09;;;;;;;1.70;1.20;;;18.80;99.90;;;;;;5034934;28;20584;-82
2021/08/20 00:24:36;;;;;;;3.20;1.30;;;18.80;99.90;;;;;;5034345;28;20271;-82
2021/08/20 00:27:02;;;;;;;2.00;1.77;;;18.80;99.90;;;;;;5034396;28;20611;-81
2021/08/20 00:29:28;;;;;;;2.60;1.13;;;18.90;99.90;;;;;;5034635;28;20598;-82
2021/08/20 00:31:54;;;;;;;5.10;1.30;;;18.90;99.90;;;;;;5053561;28;20576;-82
2021/08/20 00:34:20;;;;;;;2.10;1.20;;;19.00;99.90;;;;;;5036609;28;20172;-81
2021/08/20 00:36:46;;;;;;;2.37;1.40;;;19.00;99.90;;;;;;5017749;28;20204;-81
2021/08/20 00:39:13;;;;;;;1.73;1.33;;;19.00;99.90;;;;;;5052001;28;20567;-81
2021/08/20 00:41:43;;;;;;;3.83;1.47;;;19.10;99.90;;;;;;5034557;28;20613;-82
2021/08/20 00:44:11;;;;;;;3.40;1.63;;;19.10;99.90;;;;;;5052055;28;20576;-82
2021/08/20 00:46:38;;;;;;;1.70;1.10;;;19.10;99.90;;;;;;5051875;28;20666;-81
2021/08/20 00:49:05;;;;;;;1.50;1.00;;;19.10;99.90;;;;;;5052034;28;20635;-82
2021/08/20 00:51:35;;;;;;;2.90;1.80;;;19.10;99.90;;;;;;5034361;28;20576;-82
2021/08/20 00:54:02;;;;;;;2.77;1.30;;;19.20;99.90;;;;;;5051819;28;20671;-81
2021/08/20 00:56:28;;;;;;;2.00;1.07;;;19.20;99.90;;;;;;5033980;28;20953;-82
2021/08/20 00:58:54;;;;;;;2.47;1.17;;;19.20;99.90;;;;;;5051875;28;20635;-82
2021/08/20 01:01:21;;;;;;;1.70;1.17;;;19.20;99.90;;;;;;5051861;28;20648;-82
2021/08/20 01:03:47;;;;;;;2.10;1.17;;;19.20;99.90;;;;;;5034099;28;20683;-82
2021/08/20 01:06:13;;;;;;;2.60;1.30;;;19.30;99.90;;;;;;5017238;28;20575;-82
2021/08/20 01:08:39;;;;;;;1.80;1.10;;;19.20;99.90;;;;;;5034438;28;20631;-82
2021/08/20 01:11:08;;;;;;;2.37;1.10;;;19.30;99.90;;;;;;5035989;28;20169;-82
2021/08/20 01:13:37;;;;;;;1.90;1.30;;;19.20;99.90;;;;;;5033846;28;20575;-82
2021/08/20 01:16:04;;;;;;;2.77;1.40;;;19.20;99.90;;;;;;5051624;28;20571;-82
2021/08/20 01:18:41;;;;;;;2.37;1.30;;;19.20;99.90;;;;;;5032609;28;20722;-82
2021/08/20 01:21:17;;;;;;;1.47;1.10;;;19.20;99.90;;;;;;5017675;28;20649;-82
2021/08/20 01:23:45;;;;;;;2.07;1.30;;;19.20;99.90;;;;;;5017266;28;20645;-81
2021/08/20 01:26:13;;;;;;;1.80;1.33;;;19.20;99.90;;;;;;5033523;28;20571;-81
2021/08/20 01:28:41;;;;;;;2.50;1.20;;;19.20;99.90;;;;;;5034017;28;20704;-81
2021/08/20 01:31:10;;;;;;;2.57;1.70;;;19.20;99.90;;;;;;5033763;28;20579;-82
2021/08/20 01:33:38;;;;;;;2.97;1.80;;;19.20;99.90;;;;;;5033646;28;20602;-81
2021/08/20 01:36:08;;;;;;;2.83;1.23;;;19.20;99.90;;;;;;5051179;28;20563;-81
2021/08/20 01:38:48;;;;;;;1.80;1.50;;;19.20;99.90;;;;;;5033725;28;20608;-82
2021/08/20 01:41:14;;;;;;;2.73;1.20;;;19.20;99.90;;;;;;5033460;28;20607;-81
2021/08/20 01:43:40;;;;;;;1.87;1.37;;;19.30;99.90;;;;;;5033982;28;20630;-81
2021/08/20 01:46:06;;;;;;;1.80;1.60;;;19.30;99.90;;;;;;5040046;28;20639;-81
2021/08/20 01:48:32;;;;;;;2.20;1.50;;;19.30;99.90;;;;;;5033124;28;20726;-81
2021/08/20 01:50:58;;;;;;;2.37;1.70;;;19.30;99.90;;;;;;5033604;28;20177;-82
2021/08/20 01:53:23;;;;;;;2.20;1.33;;;19.30;99.90;;;;;;5017266;28;20169;-82
2021/08/20 01:55:52;;;;;;;2.20;1.47;;;19.30;99.90;;;;;;5033142;28;20214;-82
2021/08/20 01:58:18;;;;;;;2.33;1.60;;;19.30;99.90;;;;;;5033527;28;20629;-81
2021/08/20 02:00:43;;;;;;;1.90;1.50;;;19.30;99.90;;;;;;5016809;28;20180;-81
2021/08/20 02:03:16;;;;;;;2.57;2.10;;;19.30;99.90;;;;;;5033582;28;20181;-81
2021/08/20 02:05:42;;;;;;;2.20;1.80;;;19.30;99.90;;;;;;5033083;28;20575;-81
2021/08/20 02:08:08;;;;;;;2.70;1.53;;;19.20;99.90;;;;;;5050970;28;20708;-81
2021/08/20 02:10:35;;;;;;;1.87;1.33;;;19.20;99.90;;;;;;5033433;28;20625;-81
2021/08/20 02:13:01;;;;;;;1.73;1.43;;;19.20;99.90;;;;;;5033376;28;20281;-81
2021/08/20 02:15:29;;;;;;;2.77;1.70;;;19.10;99.90;;;;;;5016637;28;20590;-81
2021/08/20 02:17:55;;;;;;;2.20;1.70;;;19.10;99.90;;;;;;5032723;28;20721;-81
2021/08/20 02:20:23;;;;;;;3.10;1.77;;;19.10;99.90;;;;;;5033374;28;20583;-81
2021/08/20 02:22:49;;;;;;;3.10;2.47;;;19.10;99.90;;;;;;5037015;28;20589;-82
2021/08/20 02:25:14;;;;;;;2.13;1.93;;;19.00;99.90;;;;;;5039400;28;20720;-81
2021/08/20 02:27:42;;;;;;;2.90;2.30;;;19.00;99.90;;;;;;5020266;28;20549;-81
2021/08/20 02:30:08;;;;;;;2.67;1.87;;;18.90;99.90;;;;;;5037154;28;20629;-81
2021/08/20 02:32:43;;;;;;;2.50;1.90;;;19.00;99.90;;;;;;5036822;28;20203;-81
2021/08/20 02:35:09;;;;;;;2.83;2.07;;;19.00;99.90;;;;;;5036401;28;20603;-82
2021/08/20 02:37:35;;;;;;;2.13;1.67;;;18.90;99.90;;;;;;5036713;28;20207;-81
2021/08/20 02:40:01;;;;;;;2.00;1.60;;;18.90;99.90;;;;;;5036713;28;20583;-81
2021/08/20 02:42:27;;;;;;;2.27;1.77;;;18.90;99.90;;;;;;5037062;28;20200;-82
2021/08/20 02:44:52;;;;;;;2.37;2.07;;;18.90;99.90;;;;;;5060481;28;20578;-80
2021/08/20 02:47:19;;;;;;;3.70;2.40;;;18.90;99.90;;;;;;5021451;28;20587;-81
2021/08/20 02:49:45;;;;;;;3.50;2.33;;;18.90;99.90;;;;;;5036757;28;20582;-80
2021/08/20 02:52:13;;;;;;;4.07;2.23;;;18.80;99.90;;;;;;5036603;28;20173;-81
2021/08/20 02:54:38;;;;;;;2.87;2.57;;;18.80;99.90;;;;;;5036243;28;20577;-81
2021/08/20 02:57:04;;;;;;;2.30;2.07;;;18.80;99.90;;;;;;5036482;28;20193;-81
2021/08/20 02:59:36;;;;;;;3.00;2.60;;;18.80;99.90;;;;;;5024081;28;20606;-82
2021/08/20 03:02:04;;;;;;;2.80;1.90;;;18.80;99.90;;;;;;5037190;28;20567;-82
2021/08/20 03:04:30;;;;;;;3.70;2.40;;;18.80;99.90;;;;;;5019904;28;20994;-82
2021/08/20 03:06:56;;;;;;;3.37;2.67;;;18.80;99.90;;;;;;5036094;28;20931;-82
2021/08/20 03:09:48;;;;;;;3.23;2.70;;;18.70;99.90;;;;;;5050112;28;20599;-82
2021/08/20 03:12:15;;;;;;;3.30;2.67;;;18.80;99.90;;;;;;5053810;28;20571;-81
2021/08/20 03:14:52;;;;;;;3.10;2.80;;;18.80;99.90;;;;;;5036061;28;20603;-82
2021/08/20 03:17:18;;;;;;;5.57;3.37;;;18.80;99.90;;;;;;5035744;28;20618;-82
2021/08/20 03:19:45;;;;;;;4.50;3.10;;;18.70;99.90;;;;;;5019719;28;20583;-82
2021/08/20 03:22:12;;;;;;;3.10;2.80;;;18.70;99.90;;;;;;5035836;28;20602;-82
2021/08/20 03:24:37;;;;;;;2.70;2.50;;;18.70;99.90;;;;;;5053609;28;20567;-82
2021/08/20 03:27:03;;;;;;;4.00;2.70;;;18.60;99.90;;;;;;5035654;28;20228;-82
2021/08/20 03:29:29;;;;;;;3.50;3.20;;;18.60;99.90;;;;;;5019452;28;20177;-82
2021/08/20 03:32:15;;;;;;;3.77;2.90;;;18.60;99.90;;;;;;5052837;28;20591;-83
2021/08/20 03:34:45;;;;;;;3.30;3.00;;;18.60;99.90;;;;;;5035705;28;20610;-82
2021/08/20 03:37:14;;;;;;;2.70;2.50;;;18.50;99.90;;;;;;5057019;28;21174;-82
2021/08/20 03:39:41;;;;;;;4.50;2.60;;;18.50;99.90;;;;;;5035733;28;20666;-84
2021/08/20 03:42:09;;;;;;;4.60;3.00;;;18.50;99.90;;;;;;5019107;28;20679;-84
2021/08/20 03:44:41;;;;;;;3.30;3.00;;;18.50;99.90;;;;;;5035816;28;20567;-84
2021/08/20 03:47:09;;;;;;;3.80;3.33;;;18.50;99.90;;;;;;5053270;28;20599;-84
2021/08/20 03:49:35;;;;;;;4.57;3.00;;;18.50;99.90;;;;;;5053344;28;20578;-84
2021/08/20 03:52:02;;;;;;;4.50;3.00;;;18.50;99.90;;;;;;5035614;28;20165;-84
2021/08/20 03:54:32;;;;;;;2.87;2.40;;;18.50;99.90;;;;;;5035339;28;20579;-84
2021/08/20 03:56:58;;;;;;;3.40;3.10;;;18.60;99.90;;;;;;5035353;28;20660;-84
2021/08/20 03:59:26;;;;;;;3.77;3.10;;;18.60;99.90;;;;;;5036515;28;20169;-84
2021/08/20 04:02:01;;;;;;;6.90;3.10;;;18.60;99.90;;;;;;5035696;28;20632;-85
2021/08/20 04:04:27;;;;;;;3.27;2.97;;;18.70;99.90;;;;;;5056097;28;20568;-85
2021/08/20 04:07:19;;;;;;;4.07;3.27;;;18.70;99.90;;;;;;5043460;28;20651;-84
2021/08/20 04:09:55;;;;;;;3.50;3.10;;;18.80;99.90;;;;;;5038302;28;20582;-86
2021/08/20 04:12:34;;;;;;;3.87;3.10;;;18.80;99.90;;;;;;5038914;28;20579;-86
2021/08/20 04:15:09;;;;;;;3.87;2.87;;;18.90;99.90;;;;;;5039359;28;20574;-86
2021/08/20 04:17:36;;;;;;;6.10;3.57;;;18.90;99.90;;;;;;5020339;28;20685;-86
2021/08/20 04:20:02;;;;;;;4.10;3.20;;;18.90;99.90;;;;;;5035717;28;20587;-85
2021/08/20 04:22:28;;;;;;;3.90;3.07;;;19.00;99.90;;;;;;5053884;28;20173;-86
2021/08/20 04:24:54;;;;;;;3.67;3.30;;;18.90;99.90;;;;;;5053177;28;20578;-84
2021/08/20 04:27:38;;;;;;;5.80;4.07;;;19.00;99.90;;;;;;5052776;28;20233;-85
2021/08/20 04:30:22;;;;;;;4.80;4.30;;;19.00;99.90;;;;;;5036675;28;20583;-85
2021/08/20 04:33:13;;;;;;;6.40;3.40;;;19.00;99.90;;;;;;5053013;28;20568;-84
2021/08/20 04:36:14;;;;;;;5.47;3.53;;;19.00;99.90;;;;;;4970918;28;20598;-85
2021/08/20 04:38:51;;;;;;;4.30;3.70;;;19.00;99.90;;;;;;5025346;28;21021;-84
2021/08/20 04:41:35;;;;;;;5.07;3.03;;;19.00;99.90;;;;;;5054646;28;20610;-85
2021/08/20 04:44:09;;;;;;;6.70;4.33;;;19.00;99.90;;;;;;5035238;28;20571;-85
2021/08/20 04:47:04;;;;;;;5.43;3.73;;;19.00;99.90;;;;;;4997429;28;20633;-85
2021/08/20 04:49:48;;;;;;;4.67;3.23;;;19.00;99.90;;;;;;5046421;28;20591;-84
2021/08/20 04:52:39;;;;;;;5.57;3.23;;;19.10;99.90;;;;;;5031811;28;21104;-85
2021/08/20 04:55:36;;;;;;;6.60;3.40;;;19.10;99.90;;;;;;5031249;28;20618;-85
2021/08/20 04:58:03;;;;;;;4.97;3.20;;;19.10;99.90;;;;;;5014545;28;20999;-85
2021/08/20 05:00:28;;;;;;;3.77;3.43;;;19.10;99.90;;;;;;5032589;28;20575;-85
2021/08/20 05:02:54;;;;;;;4.77;3.40;;;19.20;99.90;;;;;;5031328;28;20664;-85
2021/08/20 05:05:20;;;;;;;5.73;4.30;;;19.20;99.90;;;;;;5032235;28;20174;-85
2021/08/20 05:07:45;;;;;;;4.23;3.20;;;19.20;99.90;;;;;;5032220;28;20300;-85
2021/08/20 05:10:12;;;;;;;7.40;4.17;;;19.30;99.90;;;;;;5032233;28;20162;-85
2021/08/20 05:12:39;;;;;;;5.00;3.57;;;19.30;99.90;;;;;;5014894;28;20725;-85
2021/08/20 05:15:06;;;;;;;5.17;3.03;;;19.40;99.90;;;;;;5032258;28;20584;-85
2021/08/20 05:17:32;;;;;;;5.40;3.60;;;19.40;99.90;;;;;;5032348;28;20703;-82
2021/08/20 05:19:58;;;;;;;5.90;4.00;;;19.50;99.90;;;;;;5031576;28;20672;-82
2021/08/20 05:22:24;;;;;;;3.70;3.40;;;19.50;99.90;;;;;;5031516;28;20292;-82
2021/08/20 05:24:49;;;;;;;4.03;3.07;;;19.50;99.90;;;;;;5030438;28;20166;-82
2021/08/20 05:27:15;;;;;;;3.77;3.40;;;19.60;99.90;;;;;;5032923;28;20189;-83
2021/08/20 05:29:41;;;;;;;3.67;3.37;;;19.60;99.90;;;;;;5034476;28;20174;-82
2021/08/20 05:32:07;;;;;;;3.53;3.13;;;19.60;99.90;;;;;;5032689;28;20224;-82
2021/08/20 05:34:33;;;;;;;6.67;4.10;;;19.70;99.90;;;;;;5032188;28;20157;-82
2021/08/20 05:36:58;;;;;;;4.23;3.87;;;19.70;99.90;;;;;;5031976;28;20568;-83
2021/08/20 05:39:25;;;;;;;4.63;3.50;;;19.70;99.90;;;;;;5030540;28;20179;-82
2021/08/20 05:41:51;;;;;;;5.60;2.70;;;19.80;99.90;;;;;;5032726;28;20189;-82
2021/08/20 05:44:17;;;;;;;3.97;3.67;;;19.80;99.90;;;;;;5031553;28;20576;-83
2021/08/20 05:46:42;;;;;;;3.93;3.37;;;19.90;99.90;;;;;;5031379;28;20587;-82
2021/08/20 05:49:08;;;;;;;5.77;2.90;;;19.90;99.90;;;;;;5030337;28;20565;-82
2021/08/20 05:51:34;;;;;;;4.10;3.70;;;19.90;99.90;;;;;;5031558;28;20672;-83
2021/08/20 05:54:00;;;;;;;3.77;3.33;;;20.00;99.90;;;;;;5013604;28;20584;-82
2021/08/20 05:56:26;;;;;;;6.33;3.60;;;20.00;99.90;;;;;;5030143;28;20569;-82
2021/08/20 05:58:52;;;;;;;5.13;3.30;;;20.10;99.90;;;;;;5033155;28;20216;-82
2021/08/20 06:01:19;;;;;;;3.30;3.00;;;20.20;99.90;;;;;;5017797;28;20193;-82
2021/08/20 06:03:45;;;;;;;3.40;3.07;;;20.20;99.90;;;;;;5035035;28;20667;-82
2021/08/20 06:06:27;;;;;;;4.30;3.10;;;20.30;99.90;;;;;;5035512;28;20604;-82
2021/08/20 06:08:53;;;;;;;4.10;3.00;;;20.40;99.90;;;;;;5031174;28;20646;-81
2021/08/20 06:11:19;;;;;;;5.80;3.70;;;20.50;99.90;;;;;;5031011;28;20585;-82
2021/08/20 06:13:49;;;;;;;4.90;4.10;;;20.60;99.90;;;;;;5055599;28;20161;-82
2021/08/20 06:16:17;;;;;;;5.07;4.17;;;20.70;99.90;;;;;;5055131;28;20239;-82
2021/08/20 06:18:43;;;;;;;4.73;3.57;;;20.90;99.90;;;;;;5021207;28;20970;-83
2021/08/20 06:21:18;;;;;;;3.33;2.77;;;21.10;99.90;;;;;;5035563;28;20667;-83
2021/08/20 06:23:43;;;;;;;3.87;3.50;;;21.30;99.90;;;;;;5018315;28;20173;-84
2021/08/20 06:26:09;;;;;;;4.50;4.10;;;21.50;99.90;;;;;;5036399;28;20592;-84
2021/08/20 06:28:35;;;;;;;5.20;3.60;;;21.70;99.90;;;;;;5044705;28;20201;-83
2021/08/20 06:31:06;;;;;;;3.77;3.47;;;21.90;99.90;;;;;;5036165;28;20162;-83
2021/08/20 06:33:33;;;;;;;3.80;3.50;;;22.00;99.90;;;;;;5039135;28;20595;-83
2021/08/20 06:35:59;;;;;;;5.50;4.33;;;22.10;99.90;;;;;;5004587;28;20572;-81
2021/08/20 06:38:25;;;;;;;5.00;3.70;;;22.20;99.90;;;;;;5005220;28;20627;-82
2021/08/20 06:40:51;;;;;;;4.23;3.93;;;22.40;99.90;;;;;;5038425;28;20644;-81
2021/08/20 06:43:17;;;;;;;6.32;5.40;;;22.50;99.90;;;;;;5034362;28;20796;-81
2021/08/20 06:45:43;;;;;;;7.10;4.23;;;22.70;99.90;;;;;;5034636;28;20178;-80
2021/08/20 06:48:08;;;;;;;4.73;4.27;;;22.90;99.90;;;;;;5034115;28;20236;-80
2021/08/20 06:50:34;;;;;;;4.53;3.87;;;23.10;99.90;;;;;;5016737;28;20204;-80
2021/08/20 06:53:00;;;;;;;4.63;3.63;;;23.30;99.90;;;;;;5034341;28;20597;-80
2021/08/20 06:55:30;;;;;;;5.50;3.63;;;23.70;99.90;;;;;;5016268;28;20173;-80
2021/08/20 06:57:56;;;;;;;4.53;3.47;;;24.00;99.90;;;;;;5034188;28;20592;-80
2021/08/20 07:00:22;;;;;;;4.23;3.47;;;24.60;99.90;;;;;;4991705;28;20675;-80
2021/08/20 07:02:47;;;;;;;4.57;3.83;;;25.50;99.90;;;;;;5023035;28;20174;-80
2021/08/20 07:05:15;;;;;;;5.80;4.07;;;26.20;99.90;;;;;;5025214;28;20225;-80
2021/08/20 07:07:41;;;;;;;3.67;3.37;;;26.70;99.90;;;;;;5025282;28;20581;-80
2021/08/20 07:10:12;;;;;;;3.80;3.40;;;26.90;99.90;;;;;;5024208;28;20588;-80
2021/08/20 07:12:39;;;;;;;4.10;3.70;;;26.90;99.90;;;;;;5005794;28;20597;-80
2021/08/20 07:15:07;;;;;;;3.63;3.03;;;26.80;99.90;;;;;;5022714;28;20587;-80
2021/08/20 07:17:33;;;;;;;3.90;3.60;;;26.70;99.90;;;;;;5016824;28;20624;-80
2021/08/20 07:19:59;;;;;;;4.17;3.20;;;26.60;99.90;;;;;;5045190;28;20576;-80
2021/08/20 07:22:25;;;;;;;4.97;3.17;;;26.60;99.90;;;;;;5024147;28;20584;-80
2021/08/20 07:24:51;;;;;;;3.90;3.37;;;26.50;99.90;;;;;;5025561;28;20932;-80
2021/08/20 07:27:17;;;;;;;4.10;3.70;;;26.50;99.90;;;;;;5043608;28;20213;-80
2021/08/20 07:29:43;;;;;;;6.60;3.60;;;26.40;99.90;;;;;;5042331;28;20595;-80
2021/08/20 07:32:09;;;;;;;3.40;2.60;;;26.20;99.90;;;;;;5024671;28;20588;-80
2021/08/20 07:34:35;;;;;;;4.30;3.87;;;26.00;99.90;;;;;;5041778;28;20224;-80
2021/08/20 07:37:01;;;;;;;4.23;3.83;;;25.90;99.90;;;;;;5012454;28;20611;-86
2021/08/20 07:39:27;;;;;;;3.77;3.40;;;25.70;99.90;;;;;;5054613;28;20670;-86
2021/08/20 07:41:59;;;;;;;4.20;2.93;;;25.50;99.90;;;;;;5037205;28;20177;-86
2021/08/20 07:44:25;;;;;;;3.30;3.00;;;25.40;99.90;;;;;;5055940;28;20571;-86
2021/08/20 07:47:00;;;;;;;5.47;3.50;;;25.10;99.90;;;;;;5022971;28;20584;-87
2021/08/20 07:49:29;;;;;;;3.30;3.00;;;25.00;99.90;;;;;;5038571;28;20691;-85
2021/08/20 07:51:56;;;;;;;4.73;3.40;;;24.80;99.90;;;;;;5057326;28;20603;-86
2021/08/20 07:54:22;;;;;;;4.60;4.20;;;24.60;99.90;;;;;;5067405;28;20564;-86
2021/08/20 07:56:48;;;;;;;3.80;3.30;;;24.50;99.90;;;;;;5062906;28;20580;-87
2021/08/20 07:59:14;;;;;;;3.37;3.10;;;24.30;99.90;;;;;;5058062;28;20682;-85
2021/08/20 08:01:39;;;;;;;5.10;2.83;;;24.30;99.90;;;;;;5054592;28;20264;-86
2021/08/20 08:04:05;;;;;;;3.13;2.83;;;24.30;99.90;;;;;;5019322;28;20165;-85
2021/08/20 08:06:31;;;;;;;2.50;2.30;;;24.40;99.90;;;;;;5035597;28;20184;-86
2021/08/20 08:08:56;;;;;;;5.20;3.27;;;24.40;99.90;;;;;;5053346;28;20687;-85
2021/08/20 08:11:22;;;;;;;4.60;3.50;;;24.60;99.90;;;;;;5044412;28;20220;-84
2021/08/20 08:13:48;;;;;;;5.00;2.97;;;24.70;99.90;;;;;;5030866;28;20601;-84
2021/08/20 08:16:14;;;;;;;4.87;3.37;;;24.80;99.90;;;;;;5034557;28;20176;-83
2021/08/20 08:18:40;;;;;;;3.57;2.83;;;24.90;99.90;;;;;;4999123;28;20269;-86
2021/08/20 08:21:05;;;;;;;5.67;4.20;;;24.90;99.90;;;;;;4994778;28;20577;-85
2021/08/20 08:23:32;;;;;;;3.87;3.47;;;24.90;99.90;;;;;;4996072;28;20179;-86
2021/08/20 08:25:58;;;;;;;4.43;3.23;;;25.10;99.90;;;;;;4963169;28;20174;-86
2021/08/20 08:28:24;;;;;;;3.70;2.97;;;25.10;99.90;;;;;;4987068;28;20642;-83
2021/08/20 08:30:50;;;;;;;4.37;3.17;;;25.20;99.90;;;;;;5034816;28;20567;-85
2021/08/20 08:33:18;;;;;;;4.10;3.70;;;25.10;99.90;;;;;;5015330;28;20625;-84
2021/08/20 08:35:44;;;;;;;3.60;3.00;;;25.10;99.90;;;;;;5018182;28;20665;-85
2021/08/20 08:38:12;;;;;;;3.60;3.27;;;25.30;99.90;;;;;;5015170;28;20692;-83
2021/08/20 08:40:42;;;;;;;4.00;3.10;;;25.40;99.90;;;;;;4998255;28;20639;-83
2021/08/20 08:43:09;;;;;;;3.17;2.87;;;25.50;99.90;;;;;;4997185;28;20616;-83
2021/08/20 08:45:35;;;;;;;3.30;2.90;;;25.60;99.90;;;;;;4998365;28;20580;-83
2021/08/20 08:48:04;;;;;;;4.30;2.90;;;25.70;99.90;;;;;;5014324;28;20628;-84
2021/08/20 08:50:31;;;;;;;3.37;2.83;;;25.90;99.90;;;;;;5014668;28;20634;-84
2021/08/20 08:52:57;;;;;;;3.53;3.13;;;26.10;99.90;;;;;;5031743;28;20981;-84
2021/08/20 08:55:23;;;;;;;3.53;3.10;;;26.40;99.90;;;;;;5031849;28;21150;-84
2021/08/20 08:57:49;;;;;;;3.03;2.30;;;26.60;99.90;;;;;;5014538;28;20962;-85
2021/08/20 09:00:28;;;;;;;2.40;2.20;;;26.70;99.90;;;;;;5014338;28;20569;-84
2021/08/20 09:02:54;;;;;;;3.00;2.07;;;26.80;99.90;;;;;;5032166;28;20642;-84
2021/08/20 09:05:19;;;;;;;2.30;2.10;;;26.90;99.90;;;;;;5014267;28;20576;-84
2021/08/20 09:07:51;;;;;;;3.30;2.17;;;27.00;99.90;;;;;;5015955;28;20269;-84
2021/08/20 09:10:18;;;;;;;2.87;2.20;;;26.90;99.90;;;;;;5000738;28;20235;-83
2021/08/20 09:12:49;;;;;;;3.17;2.10;;;26.90;99.90;;;;;;5016980;28;20957;-83
2021/08/20 09:15:17;;;;;;;3.83;2.10;;;26.90;99.90;;;;;;4997644;28;20576;-83
2021/08/20 09:17:54;;;;;;;2.83;2.33;;;26.80;99.90;;;;;;5043819;28;20971;-83
2021/08/20 09:20:28;;;;;;;3.50;2.83;;;26.70;99.90;;;;;;5017634;28;20590;-83
2021/08/20 09:22:57;;;;;;;4.00;3.27;;;26.50;99.90;;;;;;5052966;28;20595;-80
2021/08/20 09:25:44;;;;;;;3.53;3.20;;;26.30;99.90;;;;;;5055223;28;20925;-84
2021/08/20 09:28:22;;;;;;;4.50;3.13;;;26.10;99.90;;;;;;5052757;28;20642;-83
2021/08/20 09:30:59;;;;;;;3.43;3.13;;;25.90;99.90;;;;;;5017492;28;21114;-84
2021/08/20 09:33:36;;;;;;;3.90;3.53;;;25.60;99.90;;;;;;5051768;28;20925;-83
2021/08/20 09:36:13;;;;;;;3.03;2.80;;;25.30;99.90;;;;;;5033526;28;20598;-82
2021/08/20 09:38:45;;;;;;;4.03;3.63;;;25.20;99.90;;;;;;5017551;28;20619;-83
2021/08/20 09:41:18;;;;;;;2.73;2.53;;;25.10;99.90;;;;;;5017342;28;21141;-83
2021/08/20 09:43:47;;;;;;;2.40;2.20;;;25.10;99.90;;;;;;5001310;28;21185;-83
2021/08/20 09:46:16;;;;;;;3.30;2.27;;;25.10;99.90;;;;;;5019912;28;20571;-83
2021/08/20 09:49:02;;;;;;;1.70;1.23;;;25.20;99.90;;;;;;5017371;28;20688;-83
2021/08/20 09:51:31;;;;;;;2.60;1.50;;;25.30;99.90;;;;;;5000834;28;20590;-81
2021/08/20 09:54:02;;;;;;;2.30;1.40;;;25.40;99.90;;;;;;5024705;28;20724;-83
2021/08/20 09:56:29;;;;;;;2.40;1.70;;;25.50;99.90;;;;;;5036156;28;20575;-83
2021/08/20 09:59:00;;;;;;;2.00;1.57;;;25.70;99.90;;;;;;5036826;28;20603;-82
2021/08/20 10:01:31;;;;;;;4.57;1.90;;;25.80;99.90;;;;;;5034567;28;20576;-83
2021/08/20 10:04:02;;;;;;;2.63;1.83;;;26.00;99.90;;;;;;5035451;28;20876;-83
2021/08/20 10:06:34;;;;;;;2.93;1.80;;;26.10;99.90;;;;;;5017787;28;20587;-84
2021/08/20 10:09:10;;;;;;;1.77;1.57;;;26.20;99.90;;;;;;5036291;28;20635;-82
2021/08/20 10:11:40;;;;;;;2.03;1.57;;;26.20;99.90;;;;;;5035583;28;20587;-82
2021/08/20 10:14:06;;;;;;;1.93;1.73;;;26.30;99.90;;;;;;5018836;28;20961;-82
2021/08/20 10:16:35;;;;;;;2.47;1.40;;;26.30;99.90;;;;;;5052754;28;20668;-82
2021/08/20 10:19:04;;;;;;;2.70;1.33;;;26.50;99.90;;;;;;5033953;28;20966;-82
2021/08/20 10:21:32;;;;;;;1.40;1.00;;;26.70;99.90;;;;;;5035904;28;21029;-83
2021/08/20 10:23:59;;;;;;;2.60;0.90;;;26.90;99.90;;;;;;5036038;28;20579;-83
2021/08/20 10:26:26;;;;;;;1.40;0.80;;;27.20;99.90;;;;;;5034230;28;20939;-84
2021/08/20 10:28:53;;;;;;;1.30;0.60;;;27.90;99.90;;;;;;5034784;28;20634;-84
2021/08/20 10:31:21;;;;;;;1.20;0.60;;;28.60;99.90;;;;;;5053130;28;20559;-84
2021/08/20 10:33:47;;;;;;;1.27;0.57;;;29.30;99.90;;;;;;5026155;28;20617;-83
2021/08/20 10:36:13;;;;;;;1.20;0.50;;;29.60;99.90;;;;;;5033797;28;20665;-83
2021/08/20 10:38:39;;;;;;;1.20;0.53;;;29.80;99.90;;;;;;5032830;28;20611;-82
2021/08/20 10:41:11;;;;;;;1.73;0.60;;;29.90;99.90;;;;;;5015563;28;20174;-81
2021/08/20 10:43:56;;;;;;;1.20;0.60;;;29.80;99.90;;;;;;5013037;28;20232;-80
2021/08/20 10:46:34;;;;;;;1.30;0.60;;;29.50;99.90;;;;;;5034218;28;20896;-81
2021/08/20 10:49:12;;;;;;;1.90;0.60;;;29.40;99.90;;;;;;5016525;28;20689;-81
2021/08/20 10:51:49;;;;;;;1.10;0.50;;;29.40;99.90;;;;;;5034596;28;20605;-83
2021/08/20 10:54:41;;;;;;;1.40;0.57;;;29.50;99.90;;;;;;5016702;28;20737;-81
2021/08/20 10:57:10;;;;;;;1.17;0.60;;;29.60;99.90;;;;;;5016565;28;20643;-81
2021/08/20 10:59:36;;;;;;;1.40;0.60;;;29.60;99.90;;;;;;5036845;28;20952;-81
2021/08/20 11:02:20;;;;;;;1.30;0.50;;;29.50;99.90;;;;;;5033910;28;20572;-81
2021/08/20 11:04:58;;;;;;;1.60;0.60;;;29.40;99.90;;;;;;5016448;28;20197;-81
2021/08/20 11:07:43;;;;;;;1.40;0.60;;;29.20;99.90;;;;;;5017835;28;20629;-80
2021/08/20 11:10:09;;;;;;;1.67;0.60;;;29.20;99.90;;;;;;5035379;28;20651;-80
2021/08/20 11:12:51;;;;;;;1.13;0.50;;;29.10;99.90;;;;;;5016575;28;20584;-81
2021/08/20 11:15:25;;;;;;;3.27;0.50;;;29.10;99.90;;;;;;5033945;28;20172;-82
2021/08/20 11:17:58;;;;;;;2.13;0.57;;;29.20;99.90;;;;;;5016424;28;20611;-81
2021/08/20 11:20:37;;;;;;;1.70;0.60;;;29.20;99.90;;;;;;5056559;23;21835;-78
2021/08/20 11:23:09;;;;;;;1.73;0.50;;;29.20;99.90;;;;;;5015952;28;21166;-78
2021/08/20 11:25:58;;;;;;;1.57;0.47;;;29.20;99.90;;;;;;5035627;28;20579;-77
2021/08/20 11:28:40;;;;;;;1.87;0.60;;;29.20;99.90;;;;;;5016896;28;20624;-78
2021/08/20 11:31:08;;;;;;;1.20;0.50;;;29.20;99.90;;;;;;5007213;28;20631;-79
2021/08/20 11:33:35;;;;;;;1.40;0.50;;;29.20;99.90;;;;;;4996355;28;21246;-78
2021/08/20 11:36:06;;;;;;;1.20;0.60;;;29.20;99.90;;;;;;5013175;28;20568;-79
2021/08/20 11:38:39;;;;;;;1.17;0.50;;;29.30;99.90;;;;;;5012534;28;20583;-79
2021/08/20 11:41:13;;;;;;;2.07;0.50;;;29.60;99.90;;;;;;4982728;28;20605;-79
2021/08/20 11:43:47;;;;;;;1.93;0.50;;;30.00;99.90;;;;;;4980114;28;20618;-79
2021/08/20 11:46:13;;;;;;;1.10;0.50;;;30.30;99.90;;;;;;5011898;28;21097;-79
2021/08/20 11:48:42;;;;;;;1.23;0.50;;;30.70;99.90;;;;;;4995953;28;20727;-79
2021/08/20 11:51:13;;;;;;;1.10;0.43;;;31.20;99.90;;;;;;5012237;28;20641;-79
2021/08/20 11:53:39;;;;;;;1.40;0.50;;;31.60;99.90;;;;;;5012502;28;20566;-79
2021/08/20 11:56:13;;;;;;;1.50;0.60;;;32.00;99.90;;;;;;4978111;28;20575;-79
2021/08/20 11:58:43;;;;;;;1.53;0.60;;;32.40;99.90;;;;;;4996220;28;20571;-79
2021/08/20 12:01:25;;;;;;;1.10;0.50;;;32.80;99.90;;;;;;4995611;28;20598;-80
2021/08/20 12:03:56;;;;;;;1.30;0.47;;;33.10;99.80;;;;;;4996224;28;20930;-79
2021/08/20 12:06:22;;;;;;;1.10;0.60;;;33.30;98.70;;;;;;4995442;28;20575;-79
2021/08/20 12:08:49;;;;;;;1.10;0.50;;;33.20;97.80;;;;;;5014110;28;20731;-79
2021/08/20 12:11:21;;;;;;;1.50;0.80;;;33.10;96.50;;;;;;5013708;28;20641;-78
2021/08/20 12:13:52;;;;;;;1.20;0.60;;;33.10;95.60;;;;;;5013596;28;20629;-78
2021/08/20 12:16:39;;;;;;;1.23;0.67;;;33.10;94.90;;;;;;4995045;28;20623;-78
2021/08/20 12:19:22;;;;;;;1.57;0.70;;;32.90;93.90;;;;;;5016973;28;21111;-78
2021/08/20 12:21:52;;;;;;;2.07;0.60;;;32.70;93.10;;;;;;4995358;28;20626;-78
2021/08/20 12:24:36;;;;;;;1.60;0.50;;;32.50;92.60;;;;;;4995339;28;20585;-79
2021/08/20 12:27:13;;;;;;;1.90;0.80;;;32.10;92.10;;;;;;5012889;28;20660;-78
2021/08/20 12:29:39;;;;;;;1.40;0.70;;;31.80;91.60;;;;;;4995259;28;20620;-78
2021/08/20 12:32:05;;;;;;;1.83;0.60;;;31.40;91.90;;;;;;5011330;28;20605;-79
2021/08/20 12:34:36;;;;;;;2.17;0.60;;;31.20;92.00;;;;;;5011375;28;20695;-79
2021/08/20 12:37:04;;;;;;;2.07;0.70;;;31.00;92.30;;;;;;4994850;28;20170;-79
2021/08/20 12:39:47;;;;;;;1.73;0.73;;;30.90;92.60;;;;;;4995074;28;20569;-79
2021/08/20 12:42:27;;;;;;;1.77;0.80;;;30.80;92.10;;;;;;4978742;28;20624;-79
2021/08/20 12:45:09;;;;;;;1.40;0.80;;;30.70;92.20;;;;;;4994935;28;20918;-79
2021/08/20 12:47:35;;;;;;;1.50;0.80;;;30.60;92.00;;;;;;4978607;28;20609;-78
2021/08/20 12:50:02;;;;;;;1.40;0.80;;;30.60;92.40;;;;;;4978834;28;20597;-79
2021/08/20 12:52:29;;;;;;;2.33;1.20;;;30.60;92.50;;;;;;5011028;28;20597;-79
2021/08/20 12:54:54;;;;;;;1.20;0.60;;;30.60;92.20;;;;;;4981171;28;21117;-79
2021/08/20 12:57:21;;;;;;;2.07;0.70;;;30.60;92.00;;;;;;4994516;28;20570;-79
2021/08/20 12:59:47;;;;;;;1.80;0.80;;;30.60;91.90;;;;;;4978661;28;20569;-79